Time;durP1;ratioP1;P1;durP2;ratioP2;P2;SDS_P1;SDS_P2;PMS_P1;PMS_P2;Temp;Humidity;BMP_temperature;BMP_pressure;BME280_temperature;BME280_humidity;BME280_pressure;Samples;Min_cycle;Max_cycle;Signal;HPM_P1;HPM_P2
2022/06/25 00:00:35;;;;;;;25.13;16.02;;;17.40;99.90;;;;;;4994207;28;20125;-78
2022/06/25 00:03:01;;;;;;;25.40;16.00;;;17.40;99.90;;;;;;4977917;28;20045;-78
2022/06/25 00:05:29;;;;;;;23.92;16.20;;;17.40;99.90;;;;;;4994086;28;20049;-78
2022/06/25 00:07:56;;;;;;;21.80;15.35;;;17.40;99.90;;;;;;4994045;28;20041;-78
2022/06/25 00:10:23;;;;;;;19.90;14.13;;;17.30;99.90;;;;;;5010350;28;20404;-78
2022/06/25 00:12:49;;;;;;;19.88;13.23;;;17.30;99.90;;;;;;4993797;28;20117;-78
2022/06/25 00:15:14;;;;;;;20.17;13.93;;;17.30;99.90;;;;;;4977928;28;20101;-78
2022/06/25 00:17:40;;;;;;;15.90;12.95;;;17.30;99.90;;;;;;5008202;28;20038;-78
2022/06/25 00:20:07;;;;;;;18.45;12.95;;;17.20;99.90;;;;;;4993526;28;20289;-77
2022/06/25 00:22:33;;;;;;;23.02;13.73;;;17.20;99.90;;;;;;5013697;28;20069;-79
2022/06/25 00:24:58;;;;;;;21.13;13.30;;;17.20;99.90;;;;;;5028554;28;20104;-79
2022/06/25 00:27:24;;;;;;;18.30;12.55;;;17.20;99.90;;;;;;5001685;28;20136;-78
2022/06/25 00:29:50;;;;;;;14.98;12.30;;;17.10;99.90;;;;;;4993423;28;20042;-78
2022/06/25 00:32:15;;;;;;;15.85;12.55;;;17.10;99.90;;;;;;4993985;28;20040;-79
2022/06/25 00:34:41;;;;;;;16.70;13.57;;;17.10;99.90;;;;;;4993960;28;20592;-78
2022/06/25 00:37:08;;;;;;;15.52;11.95;;;17.00;99.90;;;;;;4993766;28;20108;-78
2022/06/25 00:39:34;;;;;;;15.77;10.95;;;17.00;99.90;;;;;;4999558;28;20060;-78
2022/06/25 00:42:00;;;;;;;21.15;12.43;;;17.00;99.90;;;;;;4995071;28;20037;-78
2022/06/25 00:44:29;;;;;;;15.23;11.65;;;17.00;99.90;;;;;;4993785;28;20046;-78
2022/06/25 00:46:55;;;;;;;19.38;12.70;;;17.00;99.90;;;;;;5009254;28;20042;-78
2022/06/25 00:49:21;;;;;;;14.10;10.45;;;16.90;99.90;;;;;;4993424;28;20405;-78
2022/06/25 00:51:49;;;;;;;15.43;11.70;;;16.90;99.90;;;;;;4993746;28;20098;-79
2022/06/25 00:54:16;;;;;;;18.45;11.40;;;16.90;99.90;;;;;;4993463;28;20042;-81
2022/06/25 00:56:48;;;;;;;15.38;11.02;;;16.90;99.90;;;;;;4993257;28;20034;-78
2022/06/25 00:59:18;;;;;;;16.48;10.38;;;16.80;99.90;;;;;;5010171;28;20042;-78
2022/06/25 01:01:43;;;;;;;12.85;9.98;;;16.80;99.90;;;;;;4993170;28;20038;-79
2022/06/25 01:04:09;;;;;;;15.90;10.77;;;16.80;99.90;;;;;;5010935;28;20122;-78
2022/06/25 01:06:35;;;;;;;15.65;11.18;;;16.80;99.90;;;;;;4993212;28;20405;-78
2022/06/25 01:09:01;;;;;;;19.52;11.02;;;16.70;99.90;;;;;;4993260;28;20116;-79
2022/06/25 01:11:27;;;;;;;12.82;10.15;;;16.80;99.90;;;;;;4993045;28;20105;-78
2022/06/25 01:13:53;;;;;;;14.60;10.18;;;16.70;99.90;;;;;;4993536;28;20413;-78
2022/06/25 01:16:22;;;;;;;13.02;10.65;;;16.70;99.90;;;;;;4997930;28;20469;-78
2022/06/25 01:18:48;;;;;;;15.43;9.70;;;16.70;99.90;;;;;;5009715;28;20046;-78
2022/06/25 01:21:14;;;;;;;13.90;9.95;;;16.60;99.90;;;;;;5010523;28;20042;-80
2022/06/25 01:23:40;;;;;;;11.05;9.80;;;16.60;99.90;;;;;;4993541;28;20105;-78
2022/06/25 01:26:07;;;;;;;14.02;8.60;;;16.70;99.90;;;;;;4992955;28;20432;-78
2022/06/25 01:28:33;;;;;;;14.85;9.55;;;16.60;99.90;;;;;;4993028;28;20050;-79
2022/06/25 01:30:58;;;;;;;11.68;9.32;;;16.60;99.90;;;;;;4994028;28;20034;-79
2022/06/25 01:33:24;;;;;;;10.40;8.52;;;16.60;99.90;;;;;;5009467;28;20498;-78
2022/06/25 01:35:50;;;;;;;11.57;8.85;;;16.60;99.90;;;;;;4992941;28;20049;-78
2022/06/25 01:38:15;;;;;;;10.82;8.82;;;16.50;99.90;;;;;;4992996;28;20033;-78
2022/06/25 01:40:41;;;;;;;10.50;8.70;;;16.50;99.90;;;;;;4992820;28;20115;-78
2022/06/25 01:43:07;;;;;;;13.98;8.68;;;16.50;99.90;;;;;;4997568;28;20046;-78
2022/06/25 01:45:34;;;;;;;11.27;8.32;;;16.50;99.90;;;;;;4976688;28;20041;-78
2022/06/25 01:48:01;;;;;;;13.05;9.00;;;16.50;99.90;;;;;;4992761;28;20049;-78
2022/06/25 01:50:27;;;;;;;13.95;8.80;;;16.50;99.90;;;;;;4993806;28;20092;-79
2022/06/25 01:52:53;;;;;;;9.93;8.07;;;16.50;99.90;;;;;;5010823;28;20038;-78
2022/06/25 01:55:19;;;;;;;10.10;8.05;;;16.40;99.90;;;;;;4992767;28;20034;-78
2022/06/25 01:57:46;;;;;;;10.30;7.57;;;16.50;99.90;;;;;;4992769;28;20046;-79
2022/06/25 02:00:16;;;;;;;9.88;7.75;;;16.40;99.90;;;;;;4994588;28;20489;-78
2022/06/25 02:02:42;;;;;;;12.05;7.65;;;16.40;99.90;;;;;;4996461;28;20045;-79
2022/06/25 02:05:08;;;;;;;10.63;8.52;;;16.50;99.90;;;;;;5013862;28;20059;-79
2022/06/25 02:07:34;;;;;;;10.85;8.48;;;16.50;99.90;;;;;;4996255;28;20046;-78
2022/06/25 02:10:00;;;;;;;10.55;7.70;;;16.50;99.90;;;;;;4996083;28;20038;-78
2022/06/25 02:12:26;;;;;;;12.00;8.70;;;16.50;99.90;;;;;;4996300;28;20100;-79
2022/06/25 02:14:52;;;;;;;12.05;8.30;;;16.60;99.90;;;;;;5013720;28;20034;-79
2022/06/25 02:17:18;;;;;;;12.98;8.93;;;16.50;99.90;;;;;;5012423;28;20068;-79
2022/06/25 02:19:43;;;;;;;9.48;8.15;;;16.50;99.90;;;;;;5012055;28;20569;-78
2022/06/25 02:22:14;;;;;;;13.00;8.27;;;16.50;99.90;;;;;;4996073;28;20045;-79
2022/06/25 02:24:43;;;;;;;12.50;8.35;;;16.50;99.90;;;;;;4995833;28;20552;-79
2022/06/25 02:27:10;;;;;;;14.20;8.20;;;16.50;99.90;;;;;;4995905;28;20046;-79
2022/06/25 02:29:36;;;;;;;12.45;8.13;;;16.50;99.90;;;;;;5013264;28;20643;-79
2022/06/25 02:32:02;;;;;;;10.65;7.85;;;16.40;99.90;;;;;;4995781;28;20049;-79
2022/06/25 02:34:28;;;;;;;11.50;8.52;;;16.40;99.90;;;;;;4995761;28;20046;-80
2022/06/25 02:36:53;;;;;;;10.15;8.30;;;16.40;99.90;;;;;;4995973;28;20046;-78
2022/06/25 02:39:19;;;;;;;11.63;8.95;;;16.40;99.90;;;;;;4995741;28;20038;-78
2022/06/25 02:41:45;;;;;;;10.55;8.23;;;16.30;99.90;;;;;;4995288;28;20042;-79
2022/06/25 02:44:11;;;;;;;15.52;8.30;;;16.40;99.90;;;;;;4995926;28;20427;-79
2022/06/25 02:46:36;;;;;;;9.70;7.93;;;16.30;99.90;;;;;;4995838;28;20065;-79
2022/06/25 02:49:03;;;;;;;10.23;8.60;;;16.30;99.90;;;;;;4995291;28;20056;-78
2022/06/25 02:51:29;;;;;;;14.00;8.65;;;16.30;99.90;;;;;;4995723;28;20038;-78
2022/06/25 02:53:55;;;;;;;15.23;9.00;;;16.20;99.90;;;;;;4995410;28;20046;-81
2022/06/25 02:59:06;;;;;;;14.45;9.02;;;16.20;99.90;;;;;;5002865;28;20089;-78
2022/06/25 03:01:31;;;;;;;14.80;9.13;;;16.20;99.90;;;;;;4994943;28;20042;-79
2022/06/25 03:03:58;;;;;;;14.98;9.15;;;16.10;99.90;;;;;;4995166;28;20037;-79
2022/06/25 03:06:24;;;;;;;13.38;9.18;;;16.10;99.90;;;;;;4995166;28;20512;-78
2022/06/25 03:08:49;;;;;;;12.30;8.90;;;16.20;99.90;;;;;;5011390;28;20042;-79
2022/06/25 03:11:16;;;;;;;11.70;9.75;;;16.20;99.90;;;;;;4978437;28;20048;-79
2022/06/25 03:13:42;;;;;;;12.93;10.23;;;16.20;99.90;;;;;;4995145;28;20049;-78
2022/06/25 03:16:08;;;;;;;13.20;9.50;;;16.20;99.90;;;;;;4994795;28;20493;-79
2022/06/25 03:18:35;;;;;;;11.88;8.63;;;16.20;99.90;;;;;;4994928;28;20049;-79
2022/06/25 03:21:01;;;;;;;10.30;8.05;;;16.20;99.90;;;;;;4994568;28;20050;-78
2022/06/25 03:23:27;;;;;;;12.85;8.85;;;16.20;99.90;;;;;;4999652;28;20110;-78
2022/06/25 03:25:53;;;;;;;11.68;8.75;;;16.10;99.90;;;;;;4978778;28;20065;-79
2022/06/25 03:28:19;;;;;;;13.95;9.38;;;16.20;99.90;;;;;;4994837;28;20050;-78
2022/06/25 03:30:44;;;;;;;12.27;8.35;;;16.10;99.90;;;;;;4994678;28;20127;-78
2022/06/25 03:33:11;;;;;;;15.20;8.77;;;16.20;99.90;;;;;;4994827;28;20046;-78
2022/06/25 03:35:37;;;;;;;25.83;9.43;;;16.20;99.90;;;;;;4978145;28;20037;-79
2022/06/25 03:38:02;;;;;;;10.40;7.95;;;16.20;99.90;;;;;;4994567;28;20097;-80
2022/06/25 03:40:28;;;;;;;12.05;8.55;;;16.10;99.90;;;;;;4997335;28;20052;-80
2022/06/25 03:42:53;;;;;;;14.40;9.10;;;16.10;99.90;;;;;;5005292;28;20041;-80
2022/06/25 03:45:19;;;;;;;15.50;8.25;;;16.10;99.90;;;;;;4997553;28;20049;-80
2022/06/25 03:47:50;;;;;;;10.23;8.57;;;16.10;99.90;;;;;;4999989;28;20041;-80
2022/06/25 03:50:20;;;;;;;11.52;8.45;;;16.20;99.90;;;;;;4997211;28;20419;-80
2022/06/25 03:52:47;;;;;;;9.77;8.50;;;16.20;99.90;;;;;;4997695;28;20045;-81
2022/06/25 03:55:13;;;;;;;10.48;7.78;;;16.10;99.90;;;;;;4997464;28;20543;-80
2022/06/25 03:57:39;;;;;;;11.02;8.70;;;16.20;99.90;;;;;;4997181;28;20056;-80
2022/06/25 04:00:08;;;;;;;14.43;8.55;;;16.20;99.90;;;;;;4980552;28;20038;-81
2022/06/25 04:02:35;;;;;;;11.27;8.15;;;16.20;99.90;;;;;;4997259;28;20056;-80
2022/06/25 04:05:01;;;;;;;13.48;8.40;;;16.20;99.90;;;;;;4995578;28;20073;-80
2022/06/25 04:07:27;;;;;;;11.90;9.00;;;16.20;99.90;;;;;;4996945;28;20501;-81
2022/06/25 04:09:53;;;;;;;12.07;9.20;;;16.20;99.90;;;;;;4996451;28;20056;-81
2022/06/25 04:12:18;;;;;;;11.35;8.23;;;16.20;99.90;;;;;;4997133;28;20519;-81
2022/06/25 04:14:44;;;;;;;15.25;8.32;;;16.30;99.90;;;;;;4996281;28;20153;-81
2022/06/25 04:17:12;;;;;;;11.57;8.48;;;16.30;99.90;;;;;;4996179;28;20045;-81
2022/06/25 04:19:41;;;;;;;11.55;8.02;;;16.30;99.90;;;;;;4995601;28;20072;-81
2022/06/25 04:22:11;;;;;;;11.98;8.00;;;16.30;99.90;;;;;;4995626;28;20046;-81
2022/06/25 04:24:37;;;;;;;13.73;8.73;;;16.40;99.90;;;;;;4979261;28;20050;-82
2022/06/25 04:27:03;;;;;;;11.15;8.70;;;16.40;99.90;;;;;;4996126;28;20564;-81
2022/06/25 04:29:30;;;;;;;13.73;8.65;;;16.40;99.90;;;;;;4995177;28;20042;-79
2022/06/25 04:31:55;;;;;;;12.60;8.10;;;16.40;99.90;;;;;;4994637;28;20164;-80
2022/06/25 04:34:21;;;;;;;10.23;8.32;;;16.30;99.90;;;;;;4994819;28;20366;-80
2022/06/25 04:36:47;;;;;;;13.90;8.45;;;16.50;99.90;;;;;;4978876;28;20044;-79
2022/06/25 04:39:13;;;;;;;11.40;7.68;;;16.60;99.90;;;;;;4995280;28;20053;-80
2022/06/25 04:41:39;;;;;;;11.23;8.15;;;16.60;99.90;;;;;;4978927;28;20489;-79
2022/06/25 04:44:05;;;;;;;10.63;7.57;;;16.70;99.90;;;;;;4994636;28;20048;-81
2022/06/25 04:46:30;;;;;;;12.45;7.90;;;16.70;99.90;;;;;;4995061;28;20049;-81
2022/06/25 04:48:57;;;;;;;11.32;7.70;;;16.90;99.90;;;;;;4994074;28;20049;-81
2022/06/25 04:51:24;;;;;;;10.07;7.35;;;16.90;99.90;;;;;;5011512;28;20044;-81
2022/06/25 04:53:55;;;;;;;9.65;6.95;;;17.20;99.90;;;;;;4994423;28;20042;-80
2022/06/25 04:56:26;;;;;;;8.07;6.95;;;17.40;99.90;;;;;;4993808;28;20552;-80
2022/06/25 04:58:53;;;;;;;8.05;6.35;;;17.60;99.90;;;;;;4977898;28;20046;-81
2022/06/25 05:01:18;;;;;;;9.70;6.85;;;17.60;99.90;;;;;;4988186;28;20128;-81
2022/06/25 05:03:44;;;;;;;8.50;7.15;;;17.70;99.90;;;;;;4994158;28;20129;-81
2022/06/25 05:06:10;;;;;;;9.05;6.45;;;17.80;99.90;;;;;;5011414;28;20132;-80
2022/06/25 05:08:36;;;;;;;8.00;6.50;;;18.00;99.90;;;;;;4993586;28;20046;-81
2022/06/25 05:11:02;;;;;;;9.80;5.97;;;18.30;99.90;;;;;;5017706;28;20026;-82
2022/06/25 05:13:28;;;;;;;7.47;5.97;;;18.80;99.90;;;;;;5016110;28;20049;-79
2022/06/25 05:15:54;;;;;;;6.03;5.00;;;19.40;99.90;;;;;;5014021;28;20417;-81
2022/06/25 05:18:19;;;;;;;7.43;5.18;;;19.90;99.90;;;;;;5000354;28;20046;-80
2022/06/25 05:20:45;;;;;;;6.38;5.32;;;20.40;99.90;;;;;;5010535;28;20048;-81
2022/06/25 05:23:12;;;;;;;5.05;4.55;;;20.80;99.90;;;;;;5010798;28;20053;-82
2022/06/25 05:25:38;;;;;;;8.45;4.93;;;21.20;99.90;;;;;;5010692;28;20053;-81
2022/06/25 05:28:05;;;;;;;6.95;4.93;;;21.50;99.90;;;;;;4993140;28;20046;-79
2022/06/25 05:30:31;;;;;;;6.65;4.40;;;21.80;99.90;;;;;;5010367;28;20465;-80
2022/06/25 05:32:57;;;;;;;7.43;4.13;;;22.00;99.90;;;;;;4993233;28;20042;-79
2022/06/25 05:35:22;;;;;;;6.05;4.00;;;22.30;99.90;;;;;;4996767;28;20125;-79
2022/06/25 05:37:48;;;;;;;4.50;4.10;;;22.40;99.90;;;;;;5004220;28;20045;-79
2022/06/25 05:40:14;;;;;;;6.97;4.30;;;22.70;99.90;;;;;;5014467;28;20104;-79
2022/06/25 05:42:39;;;;;;;4.47;4.07;;;22.70;99.90;;;;;;4981044;28;20038;-80
2022/06/25 05:45:06;;;;;;;8.77;3.83;;;22.90;99.90;;;;;;4996973;28;20046;-80
2022/06/25 05:47:31;;;;;;;5.55;4.40;;;23.10;99.90;;;;;;4996771;28;20042;-80
2022/06/25 05:49:57;;;;;;;7.35;3.50;;;23.40;99.90;;;;;;4996577;28;20067;-80
2022/06/25 05:52:22;;;;;;;5.57;4.18;;;23.60;99.90;;;;;;5013174;28;20067;-80
2022/06/25 05:54:48;;;;;;;6.25;4.05;;;23.70;99.90;;;;;;4996895;28;20074;-79
2022/06/25 05:57:14;;;;;;;12.48;3.88;;;23.90;99.90;;;;;;4980888;28;20041;-80
2022/06/25 05:59:40;;;;;;;4.00;3.60;;;24.10;99.90;;;;;;4980502;28;20083;-80
2022/06/25 06:02:07;;;;;;;5.65;3.75;;;24.30;99.90;;;;;;4997085;28;20117;-81
2022/06/25 06:04:32;;;;;;;5.45;3.20;;;24.30;99.90;;;;;;4996541;28;20497;-80
2022/06/25 06:07:00;;;;;;;6.82;3.55;;;24.20;99.90;;;;;;5013860;28;20128;-80
2022/06/25 06:09:27;;;;;;;4.47;3.42;;;24.10;99.90;;;;;;5014458;28;20053;-80
2022/06/25 06:11:54;;;;;;;4.88;3.63;;;24.30;99.90;;;;;;4996570;28;20401;-80
2022/06/25 06:14:21;;;;;;;4.15;3.33;;;24.40;99.90;;;;;;4996404;28;20374;-79
2022/06/25 06:16:46;;;;;;;6.60;3.33;;;24.70;99.90;;;;;;4996538;28;20046;-80
2022/06/25 06:19:12;;;;;;;4.80;3.35;;;25.00;99.90;;;;;;4980202;28;20087;-79
2022/06/25 06:21:37;;;;;;;5.90;2.90;;;25.10;99.90;;;;;;4995885;28;20052;-79
2022/06/25 06:24:03;;;;;;;3.83;2.95;;;25.30;99.90;;;;;;4996158;28;20050;-79
2022/06/25 06:26:29;;;;;;;4.72;2.70;;;25.50;99.90;;;;;;4980064;28;20056;-79
2022/06/25 06:28:55;;;;;;;6.10;3.10;;;25.60;99.90;;;;;;4995965;28;20042;-80
2022/06/25 06:31:20;;;;;;;8.18;2.72;;;25.70;99.90;;;;;;5013132;28;20436;-79
2022/06/25 06:33:46;;;;;;;3.05;2.13;;;25.70;99.90;;;;;;4996066;28;20105;-78
2022/06/25 06:36:12;;;;;;;6.70;2.83;;;25.70;99.90;;;;;;4995927;28;20041;-79
2022/06/25 06:38:38;;;;;;;5.90;2.72;;;25.80;99.90;;;;;;4979772;28;20049;-79
2022/06/25 06:41:04;;;;;;;4.65;2.60;;;25.90;99.90;;;;;;5012432;28;20085;-81
2022/06/25 06:43:29;;;;;;;2.83;2.17;;;26.00;99.90;;;;;;4996902;28;20073;-83
2022/06/25 06:45:55;;;;;;;4.50;2.28;;;26.10;99.90;;;;;;4995590;28;20077;-83
2022/06/25 06:48:21;;;;;;;4.45;2.50;;;26.30;99.90;;;;;;4996557;28;20046;-77
2022/06/25 06:50:46;;;;;;;3.45;1.90;;;26.40;99.90;;;;;;4979289;28;20042;-83
2022/06/25 06:53:12;;;;;;;6.10;2.20;;;26.60;99.90;;;;;;5006774;28;20397;-83
2022/06/25 06:55:38;;;;;;;5.93;2.03;;;26.70;99.90;;;;;;4996464;28;20054;-83
2022/06/25 06:58:03;;;;;;;3.08;1.90;;;26.70;99.90;;;;;;4995767;28;20114;-84
2022/06/25 07:00:29;;;;;;;4.13;2.15;;;26.90;99.90;;;;;;4995544;28;20067;-83
2022/06/25 07:02:55;;;;;;;5.10;1.83;;;27.00;99.90;;;;;;4979682;28;20489;-84
2022/06/25 07:05:20;;;;;;;4.93;2.00;;;26.90;99.90;;;;;;4979188;28;20076;-83
2022/06/25 07:07:47;;;;;;;6.22;2.10;;;26.90;99.90;;;;;;4995795;28;20490;-84
2022/06/25 07:10:13;;;;;;;2.75;1.77;;;27.00;99.90;;;;;;5011871;28;20077;-83
2022/06/25 07:12:39;;;;;;;2.92;1.70;;;27.10;99.90;;;;;;4996088;28;20101;-83
2022/06/25 07:15:06;;;;;;;4.38;1.92;;;27.30;99.90;;;;;;4995250;28;20521;-84
2022/06/25 07:17:31;;;;;;;5.18;1.73;;;27.40;99.90;;;;;;4995402;28;20037;-83
2022/06/25 07:19:58;;;;;;;4.65;2.13;;;27.50;99.90;;;;;;4995260;28;20108;-84
2022/06/25 07:22:23;;;;;;;6.63;2.00;;;27.60;99.90;;;;;;5009929;28;20050;-83
2022/06/25 07:24:51;;;;;;;4.75;1.88;;;27.70;99.90;;;;;;4995111;28;20051;-83
2022/06/25 07:27:17;;;;;;;4.75;1.67;;;27.70;99.90;;;;;;5011540;28;20085;-83
2022/06/25 07:29:43;;;;;;;3.50;1.55;;;27.70;99.90;;;;;;5011599;28;20037;-83
2022/06/25 07:32:10;;;;;;;6.40;1.80;;;27.80;99.90;;;;;;5011116;28;20095;-84
2022/06/25 07:34:36;;;;;;;4.30;1.35;;;27.90;99.90;;;;;;5011219;28;20049;-83
2022/06/25 07:37:02;;;;;;;2.63;1.30;;;27.90;99.90;;;;;;4994923;28;20601;-84
2022/06/25 07:39:28;;;;;;;6.05;1.40;;;27.90;99.90;;;;;;4994795;28;20449;-84
2022/06/25 07:41:53;;;;;;;3.97;1.58;;;27.90;99.90;;;;;;4994637;28;20029;-84
2022/06/25 07:44:19;;;;;;;4.43;1.48;;;28.00;99.90;;;;;;4994732;28;20093;-83
2022/06/25 07:46:45;;;;;;;3.78;1.10;;;28.10;99.90;;;;;;5010922;28;20038;-84
2022/06/25 07:49:11;;;;;;;3.90;1.60;;;28.10;99.90;;;;;;4994302;28;20468;-84
2022/06/25 07:54:22;;;;;;;2.15;1.20;;;28.30;99.80;;;;;;4994343;28;20052;-84
2022/06/25 07:56:48;;;;;;;2.47;1.25;;;28.20;99.90;;;;;;4977277;28;20054;-85
2022/06/25 07:59:13;;;;;;;3.38;1.13;;;28.30;99.90;;;;;;4994440;28;20056;-82
2022/06/25 08:01:39;;;;;;;4.10;1.13;;;28.30;99.00;;;;;;4994360;28;20048;-84
2022/06/25 08:04:05;;;;;;;3.65;1.05;;;28.30;98.10;;;;;;4994638;28;20045;-83
2022/06/25 08:06:34;;;;;;;5.13;1.60;;;28.20;98.20;;;;;;4994208;28;20552;-84
2022/06/25 08:09:00;;;;;;;3.58;1.17;;;28.20;99.30;;;;;;5010732;28;20093;-84
2022/06/25 08:11:25;;;;;;;2.85;1.33;;;28.30;99.90;;;;;;4994137;28;20037;-84
2022/06/25 08:13:51;;;;;;;3.47;1.60;;;28.40;99.90;;;;;;4986360;28;20041;-85
2022/06/25 08:16:16;;;;;;;3.95;1.00;;;28.50;98.60;;;;;;4994063;28;20056;-85
2022/06/25 08:18:42;;;;;;;2.60;1.35;;;28.60;99.10;;;;;;4994326;28;20057;-84
2022/06/25 08:21:08;;;;;;;1.88;0.90;;;28.50;98.50;;;;;;4994099;28;20073;-85
2022/06/25 08:23:33;;;;;;;1.63;1.00;;;28.30;97.60;;;;;;4994096;28;20087;-83
2022/06/25 08:25:59;;;;;;;3.22;1.40;;;28.10;98.00;;;;;;4994882;28;20041;-83
2022/06/25 08:28:25;;;;;;;4.20;1.45;;;27.80;98.00;;;;;;4996139;28;20042;-83
2022/06/25 08:30:50;;;;;;;4.57;1.30;;;27.40;98.50;;;;;;4993943;28;20158;-83
2022/06/25 08:33:16;;;;;;;2.58;1.35;;;27.20;98.50;;;;;;4994480;28;20042;-84
2022/06/25 08:35:42;;;;;;;3.45;1.30;;;27.00;98.70;;;;;;5011163;28;20052;-84
2022/06/25 08:38:07;;;;;;;4.22;1.70;;;26.80;99.90;;;;;;5007933;28;20076;-84
2022/06/25 08:40:33;;;;;;;5.05;1.50;;;27.00;99.90;;;;;;5011080;28;20120;-84
2022/06/25 08:42:59;;;;;;;4.90;2.38;;;27.20;99.80;;;;;;4995715;28;20053;-84
2022/06/25 08:45:25;;;;;;;4.20;1.73;;;27.50;99.90;;;;;;4995114;28;20049;-83
2022/06/25 08:47:52;;;;;;;1.95;1.00;;;27.60;99.90;;;;;;4997709;28;20057;-82
2022/06/25 08:50:21;;;;;;;3.20;1.20;;;27.60;98.70;;;;;;5000367;28;20085;-82
2022/06/25 08:52:48;;;;;;;2.53;1.08;;;27.40;97.70;;;;;;5013644;28;20045;-83
2022/06/25 08:55:33;;;;;;;8.57;1.40;;;27.50;98.70;;;;;;4994912;28;20042;-83
2022/06/25 08:58:00;;;;;;;2.90;2.25;;;27.70;99.10;;;;;;4994712;28;20133;-82
2022/06/25 09:00:26;;;;;;;5.35;1.20;;;27.80;99.90;;;;;;5010540;28;20049;-82
2022/06/25 09:02:52;;;;;;;3.38;1.23;;;27.90;98.70;;;;;;4978558;28;20128;-82
2022/06/25 09:05:42;;;;;;;2.65;1.20;;;28.00;99.50;;;;;;4978168;28;20145;-83
2022/06/25 09:08:13;;;;;;;2.22;1.00;;;28.20;93.60;;;;;;4995218;28;20581;-83
2022/06/25 09:10:40;;;;;;;3.80;1.17;;;28.20;96.10;;;;;;5004936;28;20069;-82
2022/06/25 09:13:11;;;;;;;1.58;0.80;;;28.20;96.60;;;;;;4998969;28;20457;-82
2022/06/25 09:15:39;;;;;;;1.90;1.02;;;28.20;94.00;;;;;;5000507;28;20041;-83
2022/06/25 09:18:09;;;;;;;5.50;1.45;;;28.10;94.40;;;;;;4999924;28;20069;-83
2022/06/25 09:20:36;;;;;;;2.30;0.70;;;27.90;94.50;;;;;;4984090;28;20042;-82
2022/06/25 09:23:06;;;;;;;4.97;1.10;;;27.60;95.10;;;;;;4999804;28;20045;-82
2022/06/25 09:25:34;;;;;;;3.17;1.00;;;27.40;95.00;;;;;;5028086;28;20128;-82
2022/06/25 09:28:01;;;;;;;3.08;1.10;;;27.50;96.90;;;;;;5049663;28;20045;-82
2022/06/25 09:30:29;;;;;;;1.85;1.00;;;27.70;96.60;;;;;;5035403;28;20033;-81
2022/06/25 09:32:59;;;;;;;2.88;0.93;;;27.90;96.00;;;;;;5047256;28;20127;-82
2022/06/25 09:35:44;;;;;;;2.42;1.02;;;27.90;96.40;;;;;;5035475;28;20555;-82
2022/06/25 09:38:12;;;;;;;2.05;0.80;;;27.60;94.40;;;;;;5009297;28;20052;-83
2022/06/25 09:40:39;;;;;;;1.35;0.80;;;27.40;96.10;;;;;;5021369;28;20059;-82
2022/06/25 09:43:14;;;;;;;2.95;0.95;;;27.20;96.80;;;;;;5014658;28;20073;-82
2022/06/25 09:45:44;;;;;;;2.20;0.80;;;27.40;97.20;;;;;;5014770;28;20041;-83
2022/06/25 09:48:17;;;;;;;2.40;0.90;;;27.50;97.00;;;;;;5014703;28;20046;-83
2022/06/25 09:50:43;;;;;;;2.00;1.20;;;27.60;95.80;;;;;;5014553;28;20529;-83
2022/06/25 09:53:09;;;;;;;5.90;3.55;;;27.70;94.60;;;;;;5014833;28;20169;-82
2022/06/25 09:55:39;;;;;;;2.80;1.00;;;27.90;95.70;;;;;;5014341;28;20092;-80
2022/06/25 09:58:05;;;;;;;3.65;0.70;;;27.90;92.60;;;;;;5014721;28;20073;-78
2022/06/25 10:00:31;;;;;;;3.47;0.70;;;27.80;92.20;;;;;;5002410;28;20041;-80
2022/06/25 10:02:58;;;;;;;2.95;1.30;;;27.50;92.50;;;;;;5026566;28;20037;-79
2022/06/25 10:05:37;;;;;;;2.95;1.02;;;27.50;92.30;;;;;;5023237;28;20489;-79
2022/06/25 10:08:07;;;;;;;2.03;0.90;;;27.40;93.50;;;;;;5025058;28;20045;-78
2022/06/25 10:10:41;;;;;;;2.17;0.60;;;27.30;93.20;;;;;;5025019;28;20468;-80
2022/06/25 10:13:08;;;;;;;3.13;0.77;;;27.30;94.10;;;;;;5022961;28;20475;-79
2022/06/25 10:15:34;;;;;;;1.33;1.00;;;27.20;94.50;;;;;;5020746;28;20030;-80
2022/06/25 10:18:06;;;;;;;2.88;0.80;;;27.20;93.60;;;;;;5026625;28;20041;-80
2022/06/25 10:20:33;;;;;;;2.35;0.77;;;27.20;93.40;;;;;;5019452;28;20100;-77
2022/06/25 10:23:01;;;;;;;2.05;0.77;;;27.20;95.10;;;;;;5023487;28;20069;-79
2022/06/25 10:25:28;;;;;;;2.10;0.80;;;27.10;95.40;;;;;;5024572;28;20038;-81
2022/06/25 10:28:15;;;;;;;2.55;0.60;;;27.20;94.30;;;;;;5027364;28;20049;-75
2022/06/25 10:30:48;;;;;;;1.55;0.88;;;27.40;88.30;;;;;;5026626;28;20073;-79
2022/06/25 10:33:21;;;;;;;4.90;0.93;;;27.40;95.00;;;;;;5025082;28;20045;-79
2022/06/25 10:35:47;;;;;;;6.05;0.98;;;27.40;92.70;;;;;;5024966;28;20040;-76
2022/06/25 10:38:16;;;;;;;1.60;1.00;;;27.50;92.40;;;;;;5023398;28;20049;-76
2022/06/25 10:40:55;;;;;;;3.55;0.90;;;27.60;92.10;;;;;;5024348;28;20033;-75
2022/06/25 10:43:37;;;;;;;2.22;1.10;;;27.90;91.10;;;;;;5019593;28;20393;-77
2022/06/25 10:46:26;;;;;;;3.60;0.75;;;27.90;90.90;;;;;;5028019;28;20045;-75
2022/06/25 10:49:08;;;;;;;6.82;1.13;;;27.80;88.00;;;;;;5024550;28;20037;-77
2022/06/25 10:51:43;;;;;;;3.92;1.00;;;27.60;91.50;;;;;;5024573;28;20509;-75
2022/06/25 10:54:34;;;;;;;1.92;0.60;;;27.20;92.70;;;;;;5022457;28;20051;-75
2022/06/25 10:57:02;;;;;;;1.05;0.50;;;26.90;92.20;;;;;;5019942;28;20516;-75
2022/06/25 10:59:45;;;;;;;4.13;1.15;;;26.80;93.50;;;;;;5021337;28;20053;-75
2022/06/25 11:02:14;;;;;;;1.85;0.80;;;26.70;95.80;;;;;;5012113;28;20042;-75
2022/06/25 11:04:52;;;;;;;1.48;0.80;;;26.80;94.40;;;;;;5011974;28;20042;-74
2022/06/25 11:07:25;;;;;;;4.68;0.93;;;27.00;93.80;;;;;;5011834;28;20053;-75
2022/06/25 11:09:56;;;;;;;3.40;0.85;;;27.00;93.20;;;;;;5011779;28;20428;-75
2022/06/25 11:12:23;;;;;;;1.55;0.80;;;26.90;94.50;;;;;;5011883;28;20073;-74
2022/06/25 11:14:57;;;;;;;4.13;1.10;;;26.70;94.70;;;;;;5012980;28;20408;-74
2022/06/25 11:17:23;;;;;;;0.93;0.70;;;26.40;94.30;;;;;;5016017;28;20064;-74
2022/06/25 11:19:49;;;;;;;1.45;0.70;;;26.20;94.30;;;;;;5023681;28;20029;-74
2022/06/25 11:22:14;;;;;;;2.13;0.90;;;26.00;95.70;;;;;;5020557;28;20034;-74
2022/06/25 11:28:47;;;;;;;2.00;0.80;;;25.90;96.00;;;;;;5012977;28;20358;-74
2022/06/25 11:30:17;;;;;;;3.78;1.08;;;26.00;97.80;;;;;;5011178;28;20056;-75
2022/06/25 11:32:45;;;;;;;5.60;1.02;;;26.10;97.90;;;;;;5012682;28;20414;-74
2022/06/25 11:35:10;;;;;;;1.35;0.90;;;26.10;98.00;;;;;;5012538;28;20532;-74
2022/06/25 11:37:36;;;;;;;3.03;0.80;;;26.20;98.60;;;;;;5011377;28;20045;-75
2022/06/25 11:40:02;;;;;;;2.10;0.80;;;26.10;98.90;;;;;;5011134;28;20415;-75
2022/06/25 11:42:28;;;;;;;2.72;1.30;;;26.10;98.70;;;;;;5026397;28;20034;-73
2022/06/25 11:44:55;;;;;;;1.88;1.27;;;25.90;99.20;;;;;;5030654;28;20049;-77
2022/06/25 11:47:26;;;;;;;1.70;1.20;;;25.90;99.90;;;;;;5020411;28;20051;-76
2022/06/25 11:49:52;;;;;;;4.65;1.35;;;25.90;99.90;;;;;;5017952;28;20034;-73
2022/06/25 11:52:21;;;;;;;2.38;1.02;;;26.00;99.90;;;;;;5019369;28;20452;-75
2022/06/25 11:54:47;;;;;;;3.90;1.33;;;25.90;99.90;;;;;;5015239;28;20041;-75
2022/06/25 11:57:21;;;;;;;3.83;1.20;;;25.70;99.90;;;;;;5030662;28;20120;-75
2022/06/25 11:59:49;;;;;;;1.92;1.20;;;25.60;99.90;;;;;;5030623;28;20401;-75
2022/06/25 12:02:15;;;;;;;1.92;1.00;;;25.40;99.90;;;;;;5031913;28;20103;-75
2022/06/25 12:05:05;;;;;;;6.55;1.30;;;25.20;99.90;;;;;;5030706;28;20457;-76
2022/06/25 12:07:33;;;;;;;4.25;1.80;;;25.10;99.90;;;;;;5014255;28;20490;-76
2022/06/25 12:10:03;;;;;;;4.68;1.20;;;24.80;99.90;;;;;;5030253;28;20053;-76
2022/06/25 12:12:29;;;;;;;1.95;1.08;;;24.70;99.90;;;;;;5030657;28;20087;-76
2022/06/25 12:14:59;;;;;;;2.78;1.25;;;24.50;99.90;;;;;;5030437;28;20077;-76
2022/06/25 12:17:32;;;;;;;2.08;0.93;;;24.40;99.90;;;;;;5031674;28;20042;-76
2022/06/25 12:20:04;;;;;;;2.95;1.50;;;24.40;99.90;;;;;;5030328;28;20045;-76
2022/06/25 12:22:30;;;;;;;2.53;1.38;;;24.30;99.90;;;;;;5031602;28;20030;-76
2022/06/25 12:24:58;;;;;;;2.13;1.25;;;24.40;99.90;;;;;;5014039;28;20104;-76
2022/06/25 12:27:24;;;;;;;4.63;1.27;;;24.50;99.90;;;;;;5030322;28;20091;-77
2022/06/25 12:29:53;;;;;;;3.45;1.58;;;24.60;99.90;;;;;;5031203;28;20428;-78
2022/06/25 12:32:19;;;;;;;1.73;1.30;;;24.70;99.90;;;;;;5030219;28;20046;-77
2022/06/25 12:34:50;;;;;;;3.03;1.15;;;24.80;99.90;;;;;;4997214;28;20045;-76
2022/06/25 12:37:27;;;;;;;2.47;1.60;;;24.80;99.90;;;;;;5030209;28;20045;-77
2022/06/25 12:39:53;;;;;;;2.53;1.02;;;24.80;99.90;;;;;;5029889;28;20071;-76
2022/06/25 12:42:18;;;;;;;2.80;1.15;;;24.80;99.90;;;;;;5030010;28;20164;-76
2022/06/25 12:44:47;;;;;;;1.20;1.08;;;24.80;99.90;;;;;;5029377;28;20044;-77
2022/06/25 12:47:14;;;;;;;5.78;2.80;;;24.80;99.90;;;;;;5005174;28;20436;-77
2022/06/25 12:49:44;;;;;;;2.63;1.08;;;24.70;99.90;;;;;;5022767;28;20104;-77
2022/06/25 12:52:11;;;;;;;1.60;1.15;;;24.70;99.90;;;;;;5021851;28;20041;-77